Time;durP1;ratioP1;P1;durP2;ratioP2;P2;SDS_P1;SDS_P2;PMS_P1;PMS_P2;Temp;Humidity;BMP_temperature;BMP_pressure;BME280_temperature;BME280_humidity;BME280_pressure;Samples;Min_cycle;Max_cycle;Signal;HPM_P1;HPM_P2
2022/08/07 00:00:24;;;;;;;4.07;4.07;;;;;;;12.39;95.75;65483.72;5113837;28;20173;-72
2022/08/07 00:02:50;;;;;;;3.90;3.80;;;;;;;12.36;96.02;65469.97;5113504;28;20203;-72
2022/08/07 00:05:19;;;;;;;3.73;3.73;;;;;;;12.35;96.27;65466.25;5113423;28;20228;-72
2022/08/07 00:07:45;;;;;;;3.70;3.60;;;;;;;;;;5113451;28;20238;-72
2022/08/07 00:10:16;;;;;;;4.30;4.10;;;;;;;12.32;96.34;65480.59;5114313;28;20252;-72
2022/08/07 00:12:55;;;;;;;4.70;4.50;;;;;;;12.26;96.75;65463.50;5113939;28;20215;-72
2022/08/07 00:15:26;;;;;;;4.17;4.17;;;;;;;12.22;96.75;65457.03;5113758;28;20211;-72
2022/08/07 00:18:15;;;;;;;4.77;4.43;;;;;;;12.14;96.71;65455.94;5113701;28;20177;-72
2022/08/07 00:20:50;;;;;;;4.00;3.97;;;;;;;12.10;97.02;65446.88;5113949;28;20230;-72
2022/08/07 00:23:17;;;;;;;4.10;4.00;;;;;;;12.13;97.40;65447.03;5113661;28;20209;-72
2022/08/07 00:25:46;;;;;;;4.47;4.47;;;;;;;12.10;97.45;65441.66;5113661;28;20215;-72
2022/08/07 00:28:26;;;;;;;4.17;3.97;;;;;;;12.04;97.13;65434.44;5113244;28;20663;-72
2022/08/07 00:31:08;;;;;;;4.00;4.00;;;;;;;12.01;97.48;65436.34;5095119;28;20238;-72
2022/08/07 00:33:39;;;;;;;4.33;4.33;;;;;;;11.99;97.82;65431.50;5113475;28;20189;-72
2022/08/07 00:36:07;;;;;;;5.23;4.77;;;;;;;11.97;97.44;65442.84;5113163;28;20205;-71
2022/08/07 00:38:35;;;;;;;3.93;3.93;;;;;;;;;;5095021;28;20224;-73
2022/08/07 00:41:03;;;;;;;4.40;4.30;;;;;;;11.92;97.92;65419.06;5094952;28;20189;-73
2022/08/07 00:43:35;;;;;;;4.43;4.33;;;;;;;11.87;98.04;65418.19;5117559;28;20174;-73
2022/08/07 00:46:21;;;;;;;3.73;3.73;;;;;;;11.85;98.03;65419.13;5117169;28;20209;-72
2022/08/07 00:48:49;;;;;;;3.97;3.97;;;;;;;11.81;98.50;65415.25;5098652;28;20189;-72
2022/08/07 00:51:17;;;;;;;4.37;4.23;;;;;;;11.79;98.46;65420.25;5098582;28;20234;-72
2022/08/07 00:53:44;;;;;;;4.63;4.53;;;;;;;11.75;98.59;65402.81;5116716;28;20724;-72
2022/08/07 00:56:22;;;;;;;10.03;4.33;;;;;;;11.74;98.68;65404.31;5098354;28;20244;-72
2022/08/07 00:58:55;;;;;;;4.27;4.17;;;;;;;11.70;98.85;65402.44;5098514;28;20229;-72
2022/08/07 01:01:22;;;;;;;4.70;4.50;;;;;;;11.63;98.98;65387.44;5098422;28;20181;-73
2022/08/07 01:03:50;;;;;;;3.67;3.67;;;;;;;11.61;99.30;65387.81;5116588;28;20217;-73
2022/08/07 01:06:27;;;;;;;4.00;4.00;;;;;;;11.59;99.22;65393.41;5098292;28;20205;-72
2022/08/07 01:08:54;;;;;;;3.77;3.77;;;;;;;11.57;99.18;65380.78;5116395;28;20238;-72
2022/08/07 01:11:23;;;;;;;3.90;3.90;;;;;;;11.49;98.88;65375.06;5116434;28;20220;-72
2022/08/07 01:14:10;;;;;;;4.33;4.20;;;;;;;11.45;99.05;65370.09;5116897;28;20193;-72
2022/08/07 01:16:36;;;;;;;4.73;4.73;;;;;;;11.40;99.43;65367.13;5098023;28;20211;-72
2022/08/07 01:19:06;;;;;;;3.57;3.57;;;;;;;11.33;99.60;65364.56;5098052;28;20247;-72
2022/08/07 01:21:49;;;;;;;4.13;3.93;;;;;;;11.29;100.00;65358.66;5098374;28;20200;-72
2022/08/07 01:24:19;;;;;;;3.93;3.87;;;;;;;11.26;100.00;65347.50;5098704;28;20185;-72
2022/08/07 01:26:49;;;;;;;5.30;4.10;;;;;;;11.23;100.00;65346.25;5097664;28;20282;-72
2022/08/07 01:29:21;;;;;;;4.57;4.47;;;;;;;11.09;100.00;65331.28;5097813;28;20208;-72
2022/08/07 01:31:50;;;;;;;4.30;4.20;;;;;;;11.05;100.00;65324.22;5097829;28;20189;-72
2022/08/07 01:34:18;;;;;;;5.47;5.27;;;;;;;10.97;100.00;65323.69;5097691;28;20563;-72
2022/08/07 01:36:48;;;;;;;6.93;4.50;;;;;;;10.99;100.00;65323.31;5097660;28;20213;-72
2022/08/07 01:39:28;;;;;;;4.40;4.30;;;;;;;10.98;100.00;65324.25;5097699;28;20189;-72
2022/08/07 01:42:20;;;;;;;4.30;4.20;;;;;;;10.98;100.00;65321.66;5097886;28;20181;-72
2022/08/07 01:45:10;;;;;;;4.20;3.87;;;;;;;10.95;100.00;65315.75;5097740;28;20219;-72
2022/08/07 01:47:45;;;;;;;4.70;4.67;;;;;;;10.91;100.00;65311.84;5097515;28;20661;-72
2022/08/07 01:50:36;;;;;;;4.57;4.47;;;;;;;10.94;100.00;65312.59;5097451;28;20173;-72
2022/08/07 01:53:06;;;;;;;4.27;4.27;;;;;;;10.96;100.00;65317.41;5096894;28;20216;-72
2022/08/07 01:55:44;;;;;;;4.23;4.23;;;;;;;10.96;100.00;65316.84;5097571;28;20219;-72
2022/08/07 01:58:17;;;;;;;3.93;3.93;;;;;;;11.03;100.00;65337.59;5097542;28;20203;-72
2022/08/07 02:00:59;;;;;;;5.03;4.93;;;;;;;11.04;100.00;65325.72;5097193;28;20192;-72
2022/08/07 02:03:42;;;;;;;4.97;4.70;;;;;;;11.05;100.00;65326.81;5115755;28;20615;-73
2022/08/07 02:06:20;;;;;;;3.80;3.80;;;;;;;11.03;100.00;65330.34;5115386;28;20200;-72
2022/08/07 02:09:01;;;;;;;4.87;4.57;;;;;;;;;;5097060;28;20175;-72
2022/08/07 02:11:37;;;;;;;4.50;4.40;;;;;;;10.98;100.00;65322.22;5097861;28;20601;-72
2022/08/07 02:14:27;;;;;;;4.27;4.27;;;;;;;10.95;100.00;65318.91;5096942;28;20620;-72
2022/08/07 02:17:09;;;;;;;4.77;4.70;;;;;;;;;;5097510;28;20189;-71
2022/08/07 02:19:40;;;;;;;4.67;4.57;;;;;;;10.96;100.00;65320.00;5096845;28;20253;-71
2022/08/07 02:22:28;;;;;;;4.97;4.67;;;;;;;10.94;100.00;65315.19;5096830;28;20603;-72
2022/08/07 02:24:56;;;;;;;4.37;4.27;;;;;;;10.89;100.00;65307.03;5096700;28;20212;-72
2022/08/07 02:27:27;;;;;;;5.00;4.90;;;;;;;10.82;100.00;65304.47;5114988;28;20192;-72
2022/08/07 02:30:01;;;;;;;4.20;4.10;;;;;;;10.80;100.00;65306.91;5096698;28;20554;-72
2022/08/07 02:32:37;;;;;;;4.33;4.33;;;;;;;10.77;100.00;65295.78;5096537;28;20215;-72
2022/08/07 02:35:25;;;;;;;4.90;4.80;;;;;;;10.71;100.00;65297.47;5096524;28;20629;-72
2022/08/07 02:38:14;;;;;;;4.67;4.47;;;;;;;10.67;100.00;65301.38;5096567;28;20179;-72
2022/08/07 02:40:43;;;;;;;5.60;4.20;;;;;;;10.68;100.00;65286.38;5096422;28;20193;-72
2022/08/07 02:43:13;;;;;;;4.37;4.30;;;;;;;;;;5097022;28;20188;-72
2022/08/07 02:45:41;;;;;;;4.60;4.60;;;;;;;10.71;100.00;65290.22;5097100;28;20311;-72
2022/08/07 02:48:29;;;;;;;4.43;4.33;;;;;;;10.69;100.00;65288.03;5096371;28;20201;-72
2022/08/07 02:51:00;;;;;;;5.33;4.47;;;;;;;10.68;100.00;65294.69;5097103;28;20203;-72
2022/08/07 02:53:31;;;;;;;4.80;4.60;;;;;;;10.65;100.00;65293.97;5096155;28;20216;-72
2022/08/07 02:56:07;;;;;;;4.37;4.27;;;;;;;10.65;100.00;65285.66;5096326;28;20211;-72
2022/08/07 02:58:50;;;;;;;4.83;4.73;;;;;;;10.57;100.00;65277.31;5096217;28;20194;-72
2022/08/07 03:01:22;;;;;;;4.50;4.50;;;;;;;10.51;100.00;65268.09;5096059;28;20270;-72
2022/08/07 03:04:05;;;;;;;4.90;4.80;;;;;;;10.50;100.00;65279.38;5095996;28;20185;-72
2022/08/07 03:06:39;;;;;;;4.73;4.60;;;;;;;10.41;100.00;65262.72;5114267;28;20562;-72
2022/08/07 03:09:08;;;;;;;5.13;4.80;;;;;;;;;;5114159;28;20217;-72
2022/08/07 03:11:37;;;;;;;4.67;4.57;;;;;;;10.37;100.00;65250.53;5095942;28;20742;-72
2022/08/07 03:14:19;;;;;;;4.67;4.57;;;;;;;10.36;100.00;65249.44;5095843;28;20294;-72
2022/08/07 03:16:48;;;;;;;4.47;4.17;;;;;;;10.35;100.00;65253.47;5095815;28;20698;-72
2022/08/07 03:19:18;;;;;;;4.87;4.77;;;;;;;10.35;100.00;65256.09;5095754;28;20564;-72
2022/08/07 03:21:46;;;;;;;4.90;4.80;;;;;;;10.29;100.00;65248.91;5095801;28;20682;-72
2022/08/07 03:24:16;;;;;;;4.43;4.43;;;;;;;10.26;100.00;65240.38;5095790;28;20271;-72
2022/08/07 03:26:59;;;;;;;5.27;5.13;;;;;;;10.25;100.00;65239.28;5095506;28;20203;-72
2022/08/07 03:29:39;;;;;;;5.43;4.87;;;;;;;10.14;100.00;65225.59;5095640;28;20242;-72
2022/08/07 03:32:21;;;;;;;5.07;4.97;;;;;;;10.10;100.00;65226.34;5095653;28;20184;-72
2022/08/07 03:34:52;;;;;;;5.30;5.20;;;;;;;10.06;100.00;65221.88;5095537;28;20587;-72
2022/08/07 03:37:41;;;;;;;5.03;4.93;;;;;;;9.99;100.00;65216.72;5095582;28;20288;-72
2022/08/07 03:40:22;;;;;;;5.60;5.50;;;;;;;9.99;100.00;65224.50;5095602;28;20238;-72
2022/08/07 03:43:02;;;;;;;4.43;4.43;;;;;;;;;;5095557;28;20180;-72
2022/08/07 03:45:36;;;;;;;5.13;5.03;;;;;;;9.97;100.00;65208.78;5095469;28;20205;-72
2022/08/07 03:48:12;;;;;;;5.33;5.23;;;;;;;9.97;100.00;65206.75;5095496;28;20585;-72
2022/08/07 03:50:39;;;;;;;4.93;4.87;;;;;;;9.97;100.00;65214.53;5095449;28;20224;-72
2022/08/07 03:53:17;;;;;;;4.77;4.60;;;;;;;9.96;100.00;65218.59;5095432;28;20210;-72
2022/08/07 03:55:58;;;;;;;5.10;4.80;;;;;;;9.95;100.00;65207.13;5095413;28;20245;-72
2022/08/07 03:58:32;;;;;;;4.93;4.63;;;;;;;9.90;100.00;65217.69;5095425;28;20211;-72
2022/08/07 04:01:20;;;;;;;4.47;4.47;;;;;;;9.85;100.00;65201.22;5113606;28;20227;-72
2022/08/07 04:03:49;;;;;;;5.30;5.30;;;;;;;9.82;100.00;65195.31;5095349;28;20205;-72
2022/08/07 04:06:22;;;;;;;5.20;5.10;;;;;;;9.76;100.00;65191.25;5095453;28;20631;-71
2022/08/07 04:09:04;;;;;;;4.63;4.53;;;;;;;9.72;100.00;65179.63;5095815;28;20272;-71
2022/08/07 04:11:31;;;;;;;4.23;4.23;;;;;;;9.71;100.00;65185.72;5095212;28;20186;-71
2022/08/07 04:14:18;;;;;;;5.37;5.27;;;;;;;;;;5113410;28;20198;-72
2022/08/07 04:17:05;;;;;;;5.57;5.20;;;;;;;9.73;100.00;65182.75;5098743;28;20630;-72
2022/08/07 04:19:49;;;;;;;5.37;5.07;;;;;;;9.70;100.00;65185.16;5117790;28;20222;-72
2022/08/07 04:22:18;;;;;;;5.33;5.07;;;;;;;;;;5099195;28;20185;-72
2022/08/07 04:24:49;;;;;;;4.77;4.63;;;;;;;9.71;100.00;65180.53;5099079;28;20582;-72
2022/08/07 04:27:16;;;;;;;4.33;4.23;;;;;;;9.70;100.00;65185.16;5098845;28;20201;-72
2022/08/07 04:29:54;;;;;;;4.67;4.57;;;;;;;9.70;100.00;65172.22;5099332;28;20733;-72
2022/08/07 04:32:43;;;;;;;4.70;4.60;;;;;;;;;;5099181;28;20195;-72
2022/08/07 04:35:14;;;;;;;5.60;5.33;;;;;;;9.56;100.00;65175.41;5099265;28;20217;-72
2022/08/07 04:37:41;;;;;;;5.67;5.37;;;;;;;9.48;100.00;65156.19;5098806;28;20223;-72
2022/08/07 04:40:28;;;;;;;5.60;5.50;;;;;;;;;;5098807;28;20181;-72
2022/08/07 04:42:58;;;;;;;4.87;4.60;;;;;;;9.35;100.00;65149.56;5098808;28;20224;-72
2022/08/07 04:46:09;;;;;;;4.77;4.67;;;;;;;9.40;100.00;65147.31;5098665;28;20583;-72
2022/08/07 04:48:45;;;;;;;5.10;5.10;;;;;;;9.44;100.00;65151.75;5051022;28;20196;-72
2022/08/07 04:51:26;;;;;;;5.30;5.20;;;;;;;9.52;100.00;65160.63;5099438;28;20196;-72
2022/08/07 04:54:01;;;;;;;5.40;5.10;;;;;;;9.57;100.00;65166.16;5098864;28;20216;-72
2022/08/07 04:56:48;;;;;;;5.87;5.70;;;;;;;9.62;100.00;65171.69;5098816;28;20211;-73
2022/08/07 04:59:42;;;;;;;5.10;5.00;;;;;;;;;;5098433;28;20189;-73
2022/08/07 05:02:55;;;;;;;5.70;5.60;;;;;;;9.70;100.00;65179.44;5098439;28;20185;-73
2022/08/07 05:05:39;;;;;;;5.47;5.37;;;;;;;9.73;100.00;65182.75;5098575;28;20582;-72
2022/08/07 05:08:35;;;;;;;6.23;5.73;;;;;;;9.72;100.00;65184.25;5098486;28;20288;-72
2022/08/07 05:11:29;;;;;;;6.63;6.37;;;;;;;9.76;100.00;65196.44;5098128;28;20216;-72
2022/08/07 05:14:21;;;;;;;5.60;5.60;;;;;;;9.79;100.00;65202.91;5097873;28;20201;-72
2022/08/07 05:17:11;;;;;;;5.70;5.50;;;;;;;9.88;100.00;65197.34;5116717;28;20253;-72
2022/08/07 05:19:50;;;;;;;6.33;6.10;;;;;;;9.96;100.00;65207.69;5098664;28;20203;-72
2022/08/07 05:22:20;;;;;;;5.87;5.87;;;;;;;10.03;100.00;65220.63;5098108;28;20179;-72
2022/08/07 05:24:58;;;;;;;6.10;6.00;;;;;;;10.09;100.00;65222.63;5098165;28;20296;-72
2022/08/07 05:27:27;;;;;;;6.93;6.63;;;;;;;10.21;100.00;65232.75;5115416;28;20238;-72
2022/08/07 05:30:16;;;;;;;7.60;7.40;;;;;;;10.38;100.00;65253.69;5116430;28;20170;-72
2022/08/07 05:32:59;;;;;;;18.97;7.23;;;;;;;10.62;100.00;65285.44;5097722;28;20181;-72
2022/08/07 05:35:31;;;;;;;8.13;7.67;;;;;;;10.70;100.00;65294.31;5097761;28;20216;-72
2022/08/07 05:38:01;;;;;;;7.07;6.73;;;;;;;10.78;100.00;65302.63;5098010;28;20191;-74
2022/08/07 05:40:37;;;;;;;7.53;7.23;;;;;;;10.86;100.00;65303.16;5098299;28;20181;-74
2022/08/07 05:43:18;;;;;;;7.43;7.10;;;;;;;10.97;100.00;65315.34;5098284;28;20226;-73
2022/08/07 05:46:04;;;;;;;7.97;7.40;;;;;;;;;;5115879;28;20230;-73
2022/08/07 05:48:32;;;;;;;7.70;7.23;;;;;;;11.23;100.00;65349.38;5097481;28;20206;-73
2022/08/07 05:51:01;;;;;;;6.80;6.43;;;;;;;11.30;100.00;65359.75;5097414;28;20197;-73
2022/08/07 05:53:30;;;;;;;7.43;7.00;;;;;;;11.43;100.00;65373.63;5097358;28;20212;-73
2022/08/07 05:56:20;;;;;;;6.70;6.60;;;;;;;11.54;100.00;65380.06;5097359;28;20215;-73
2022/08/07 05:59:00;;;;;;;6.43;6.17;;;;;;;11.73;100.00;65401.16;5097375;28;20191;-73
2022/08/07 06:01:28;;;;;;;6.87;6.60;;;;;;;11.96;100.00;65426.13;5097266;28;20188;-73
2022/08/07 06:04:03;;;;;;;6.30;6.10;;;;;;;;;;5097481;28;20707;-73
2022/08/07 06:06:35;;;;;;;5.23;5.03;;;;;;;;;;5097639;28;20227;-73
2022/08/07 06:09:05;;;;;;;6.73;6.20;;;;;;;12.21;100.00;65450.16;5115946;28;20177;-73
2022/08/07 06:11:36;;;;;;;5.90;5.80;;;;;;;;;;5097943;28;20200;-73
2022/08/07 06:14:03;;;;;;;5.97;5.73;;;;;;;;;;5096894;28;20303;-73
2022/08/07 06:16:50;;;;;;;5.10;5.10;;;;;;;;;;5096915;28;20648;-73
2022/08/07 06:19:26;;;;;;;5.37;5.33;;;;;;;;;;5097746;28;20185;-73
2022/08/07 06:22:14;;;;;;;7.10;6.70;;;;;;;;;;5096575;28;20276;-73
2022/08/07 06:25:00;;;;;;;5.83;5.73;;;;;;;;;;5096662;28;20216;-72
2022/08/07 06:27:28;;;;;;;5.87;5.67;;;;;;;13.21;95.14;65562.72;5096594;28;20201;-73
2022/08/07 06:30:15;;;;;;;5.60;5.50;;;;;;;13.33;94.90;65572.34;5096735;28;20215;-73
2022/08/07 06:33:06;;;;;;;6.00;5.90;;;;;;;13.47;94.29;65596.25;5096652;28;20663;-73
2022/08/07 06:35:42;;;;;;;5.50;5.40;;;;;;;13.53;94.25;65607.59;5096584;28;20634;-73
2022/08/07 06:38:29;;;;;;;5.70;5.50;;;;;;;13.62;93.71;65606.59;5115365;28;20181;-73
2022/08/07 06:40:59;;;;;;;5.83;5.73;;;;;;;13.66;93.83;65613.69;5096380;28;20746;-73
2022/08/07 06:43:31;;;;;;;4.83;4.70;;;;;;;13.75;93.88;65618.44;5097085;28;20193;-73
2022/08/07 06:46:10;;;;;;;5.27;5.07;;;;;;;13.89;93.01;65641.84;5096487;28;20216;-73
2022/08/07 06:48:39;;;;;;;5.37;5.27;;;;;;;14.09;92.28;65658.31;5096302;28;20204;-74
2022/08/07 06:51:09;;;;;;;4.67;4.63;;;;;;;;;;5096280;28;20193;-74
2022/08/07 06:53:40;;;;;;;5.03;4.93;;;;;;;14.39;91.33;65690.56;5096130;28;20209;-74
2022/08/07 06:56:39;;;;;;;5.17;5.07;;;;;;;14.50;89.78;65706.00;5096128;28;20201;-73
2022/08/07 06:59:42;;;;;;;5.67;5.67;;;;;;;14.59;88.36;65710.75;5096319;28;20192;-74
2022/08/07 07:02:30;;;;;;;5.00;5.00;;;;;;;14.61;88.04;65712.44;5096129;28;20180;-74
2022/08/07 07:05:20;;;;;;;4.30;4.30;;;;;;;14.70;88.24;65721.88;5114578;28;20197;-73
2022/08/07 07:08:07;;;;;;;3.97;3.87;;;;;;;14.81;88.55;65750.38;5096108;28;20566;-73
2022/08/07 07:10:44;;;;;;;3.93;3.83;;;;;;;15.03;88.05;65761.22;5095975;28;20182;-73
2022/08/07 07:13:32;;;;;;;3.50;3.40;;;;;;;15.12;86.60;65773.84;5095813;28;20707;-74
2022/08/07 07:16:22;;;;;;;3.70;3.60;;;;;;;15.20;85.37;65779.03;5114610;28;20239;-74
2022/08/07 07:18:58;;;;;;;2.80;2.80;;;;;;;;;;5114671;28;20231;-74
2022/08/07 07:21:26;;;;;;;3.80;3.60;;;;;;;;;;5114009;28;20220;-74
2022/08/07 07:24:15;;;;;;;3.43;3.23;;;;;;;15.49;85.64;65815.97;5114276;28;20181;-74
2022/08/07 07:26:44;;;;;;;2.97;2.87;;;;;;;15.58;83.83;65821.34;5113626;28;20311;-74
2022/08/07 07:29:20;;;;;;;3.63;3.63;;;;;;;;;;5114422;28;20177;-74
2022/08/07 07:32:09;;;;;;;2.93;2.80;;;;;;;;;;5114177;28;20272;-74
2022/08/07 07:34:41;;;;;;;2.90;2.90;;;;;;;16.01;81.02;65859.72;5114332;28;20193;-74
2022/08/07 07:37:07;;;;;;;2.37;2.37;;;;;;;;;;5113881;28;20677;-74
2022/08/07 07:39:59;;;;;;;2.60;2.50;;;;;;;16.18;78.39;65884.44;5113817;28;20177;-74
2022/08/07 07:42:26;;;;;;;2.67;2.57;;;;;;;;;;5114032;28;20192;-74
2022/08/07 07:45:02;;;;;;;2.50;2.50;;;;;;;;;;5113967;28;20212;-73
2022/08/07 07:47:30;;;;;;;2.73;2.73;;;;;;;;;;5113773;28;20205;-74
2022/08/07 07:50:18;;;;;;;2.37;2.37;;;;;;;16.57;75.09;65928.81;5115428;28;20181;-74
2022/08/07 07:53:06;;;;;;;2.20;2.20;;;;;;;16.63;75.26;65928.19;5120515;28;20206;-74
2022/08/07 07:55:52;;;;;;;2.47;2.37;;;;;;;;;;5120512;28;20634;-74
2022/08/07 07:58:28;;;;;;;2.20;2.20;;;;;;;16.75;72.73;65941.59;5120501;28;20187;-74
2022/08/07 08:00:54;;;;;;;1.97;1.97;;;;;;;;;;5120718;28;20264;-74
2022/08/07 08:03:22;;;;;;;1.93;1.93;;;;;;;16.94;72.19;65967.47;5120441;28;20694;-74
2022/08/07 08:06:09;;;;;;;3.00;2.90;;;;;;;17.07;71.90;65984.00;5120313;28;20219;-74
2022/08/07 08:08:40;;;;;;;2.30;2.30;;;;;;;;;;5120692;28;20272;-75
2022/08/07 08:11:09;;;;;;;2.30;2.30;;;;;;;17.18;72.31;65993.66;5120422;28;20289;-74
2022/08/07 08:13:46;;;;;;;2.43;2.43;;;;;;;17.29;69.10;66005.94;5120297;28;20762;-74
2022/08/07 08:16:23;;;;;;;2.30;2.27;;;;;;;;;;5120383;28;20247;-74
2022/08/07 08:18:53;;;;;;;2.87;2.00;;;;;;;17.20;69.64;65997.94;5120578;28;20181;-74
2022/08/07 08:27:35;;;;;;;1.87;1.87;;;;;;;17.32;68.27;66017.16;5120236;28;20279;-75
2022/08/07 08:30:10;;;;;;;1.57;1.57;;;;;;;;;;5120209;28;20181;-75
2022/08/07 08:32:57;;;;;;;1.93;1.93;;;;;;;;;;5120158;28;20177;-74
2022/08/07 08:35:26;;;;;;;2.00;1.90;;;;;;;17.57;67.61;66041.28;5120318;28;20265;-74
2022/08/07 08:38:06;;;;;;;3.60;1.63;;;;;;;17.76;64.37;66056.69;5120366;28;20205;-74
2022/08/07 08:40:40;;;;;;;1.10;1.10;;;;;;;17.93;64.19;66075.66;5120020;28;20643;-74
2022/08/07 08:43:27;;;;;;;1.57;1.57;;;;;;;18.10;64.82;66096.69;5120260;28;20230;-76
2022/08/07 08:46:39;;;;;;;1.77;1.77;;;;;;;18.12;62.54;66096.28;5119893;28;20220;-76
2022/08/07 08:49:10;;;;;;;1.67;1.67;;;;;;;;;;5120276;28;20197;-74
2022/08/07 08:51:45;;;;;;;1.20;1.20;;;;;;;;;;5120309;28;20212;-72
2022/08/07 08:54:40;;;;;;;1.03;1.03;;;;;;;18.37;56.69;66124.19;5120058;28;20201;-72
2022/08/07 08:57:18;;;;;;;1.77;1.67;;;;;;;18.51;55.81;66141.91;5120159;28;20213;-73
2022/08/07 08:59:52;;;;;;;0.80;0.80;;;;;;;18.64;54.97;66161.66;5120208;28;20181;-73
2022/08/07 09:02:25;;;;;;;0.90;0.90;;;;;;;18.78;54.95;66163.59;5117759;28;20191;-73
2022/08/07 09:05:12;;;;;;;1.30;1.30;;;;;;;18.91;55.98;66185.44;5116854;28;20258;-73
2022/08/07 09:07:48;;;;;;;1.07;0.90;;;;;;;;;;5116910;28;20177;-73
2022/08/07 09:10:26;;;;;;;1.00;1.00;;;;;;;;;;5116812;28;20594;-74
2022/08/07 09:13:28;;;;;;;1.10;1.10;;;;;;;18.81;54.60;66172.22;5116792;28;20576;-73
2022/08/07 09:16:11;;;;;;;0.90;0.90;;;;;;;19.03;54.56;66190.41;5083673;28;20240;-72
2022/08/07 09:19:20;;;;;;;1.13;1.13;;;;;;;19.22;51.99;66217.44;5116369;28;20692;-73
2022/08/07 09:22:27;;;;;;;0.80;0.80;;;;;;;19.10;52.87;66203.47;5116330;28;20207;-73
2022/08/07 09:25:25;;;;;;;1.30;1.30;;;;;;;19.03;52.66;66198.28;5116442;28;20571;-74
2022/08/07 09:28:03;;;;;;;3.80;1.37;;;;;;;;;;5116538;28;20226;-74
2022/08/07 09:30:47;;;;;;;4.80;1.40;;;;;;;18.87;53.77;66181.00;5116660;28;20227;-74
2022/08/07 09:33:36;;;;;;;0.90;0.90;;;;;;;18.80;53.28;66173.72;5116381;28;20615;-74
2022/08/07 09:36:30;;;;;;;0.80;0.80;;;;;;;18.89;54.46;66183.78;5116040;28;20771;-73
2022/08/07 09:39:25;;;;;;;1.00;1.00;;;;;;;18.88;53.53;66179.47;5116573;28;20604;-73
2022/08/07 09:42:44;;;;;;;1.13;1.13;;;;;;;18.79;54.52;66164.72;5116427;28;20638;-73
2022/08/07 09:45:19;;;;;;;1.20;1.20;;;;;;;18.81;52.50;66161.13;5103196;28;20255;-73
2022/08/07 09:48:24;;;;;;;1.20;1.20;;;;;;;18.86;53.99;66171.97;5133004;27;20201;-74
2022/08/07 09:51:09;;;;;;;1.43;1.33;;;;;;;;;;5136519;27;20572;-73
2022/08/07 09:54:00;;;;;;;0.97;0.97;;;;;;;19.02;52.77;66194.56;5121130;27;20197;-71
2022/08/07 09:56:41;;;;;;;0.93;0.93;;;;;;;;;;5116344;27;20564;-73
2022/08/07 09:59:22;;;;;;;1.17;1.03;;;;;;;;;;5136670;27;20526;-73
2022/08/07 10:02:13;;;;;;;4.63;0.83;;;;;;;19.00;50.95;66195.50;5129982;27;20188;-73
2022/08/07 10:05:17;;;;;;;2.77;1.20;;;;;;;19.07;51.06;66200.13;5121157;27;20238;-73
2022/08/07 10:08:42;;;;;;;0.70;0.70;;;;;;;19.15;49.53;66203.81;5103848;28;20207;-73
2022/08/07 10:11:09;;;;;;;0.80;0.80;;;;;;;;;;5125129;27;20224;-73
2022/08/07 10:14:12;;;;;;;0.83;0.83;;;;;;;19.11;51.09;66207.78;5119189;27;20188;-73
2022/08/07 10:17:12;;;;;;;0.97;0.93;;;;;;;19.38;48.67;66234.75;5121582;27;20592;-72
2022/08/07 10:19:51;;;;;;;0.93;0.93;;;;;;;;;;5115401;28;20647;-74
2022/08/07 10:22:35;;;;;;;4.63;0.90;;;;;;;19.65;47.64;66266.47;5115026;28;20204;-73
2022/08/07 10:25:37;;;;;;;3.70;0.70;;;;;;;19.71;47.12;66273.16;5113944;28;20209;-74
2022/08/07 10:28:22;;;;;;;0.90;0.90;;;;;;;;;;5107731;27;20655;-73
2022/08/07 10:31:09;;;;;;;0.80;0.80;;;;;;;19.65;47.79;66274.38;5088859;28;20184;-73
2022/08/07 10:33:55;;;;;;;0.90;0.90;;;;;;;;;;5115764;27;20193;-73
2022/08/07 10:37:00;;;;;;;1.00;1.00;;;;;;;;;;5112563;28;20215;-73
2022/08/07 10:39:54;;;;;;;0.80;0.80;;;;;;;19.68;47.27;66267.16;5112163;28;20195;-73
2022/08/07 10:42:52;;;;;;;1.13;1.13;;;;;;;19.86;47.21;66282.03;5115143;28;20183;-73
2022/08/07 10:45:35;;;;;;;1.03;1.03;;;;;;;;;;5113317;28;20216;-73
2022/08/07 10:48:34;;;;;;;0.80;0.80;;;;;;;20.16;47.28;66320.25;5120136;27;20528;-73
2022/08/07 10:51:06;;;;;;;5.33;0.83;;;;;;;;;;5100492;27;20661;-72
2022/08/07 10:53:59;;;;;;;1.17;1.17;;;;;;;;;;5123166;27;20189;-73
2022/08/07 10:56:45;;;;;;;1.07;1.07;;;;;;;;;;5094499;28;20209;-72
2022/08/07 10:59:45;;;;;;;1.30;1.27;;;;;;;20.41;44.43;66347.06;5062266;28;20201;-72
2022/08/07 11:02:43;;;;;;;1.20;1.03;;;;;;;20.17;45.22;66324.00;5114406;28;20234;-73
2022/08/07 11:05:30;;;;;;;2.17;1.00;;;;;;;20.14;44.81;66318.00;5114316;28;20250;-73
2022/08/07 11:08:29;;;;;;;0.80;0.80;;;;;;;20.09;45.05;66307.16;5114642;28;20264;-73
2022/08/07 11:11:32;;;;;;;1.10;1.10;;;;;;;20.09;45.30;66311.88;5096624;28;20252;-74
2022/08/07 11:14:18;;;;;;;1.00;1.00;;;;;;;;;;5064572;28;20200;-73
2022/08/07 11:17:13;;;;;;;0.67;0.67;;;;;;;20.06;44.76;66312.25;5114761;28;20543;-73
2022/08/07 11:19:57;;;;;;;0.90;0.90;;;;;;;20.04;44.94;66307.41;5114188;28;20177;-75
2022/08/07 11:22:33;;;;;;;0.83;0.80;;;;;;;20.05;45.60;66311.16;5114369;28;20172;-74
2022/08/07 11:25:35;;;;;;;0.87;0.80;;;;;;;19.96;44.77;66298.47;5113306;28;20230;-73
2022/08/07 11:28:25;;;;;;;1.00;1.00;;;;;;;19.84;43.86;66289.75;5113817;28;20662;-74
2022/08/07 11:31:10;;;;;;;1.13;1.13;;;;;;;;;;5113947;28;20237;-74
2022/08/07 11:33:46;;;;;;;0.90;0.90;;;;;;;20.01;44.90;66303.50;5113939;28;20188;-74
2022/08/07 11:36:56;;;;;;;0.80;0.80;;;;;;;20.11;44.16;66308.84;5113761;28;20209;-73
2022/08/07 11:39:49;;;;;;;0.90;0.90;;;;;;;20.10;44.44;66315.63;5108806;28;20197;-73
2022/08/07 11:42:29;;;;;;;1.00;1.00;;;;;;;;;;5114138;28;20178;-74
2022/08/07 11:45:14;;;;;;;2.30;0.80;;;;;;;20.13;44.20;66311.06;5113757;28;20618;-73
2022/08/07 11:48:07;;;;;;;0.87;0.87;;;;;;;20.28;44.42;66333.66;5114062;28;20238;-74
2022/08/07 11:51:30;;;;;;;1.13;1.13;;;;;;;;;;5114009;28;20212;-74
2022/08/07 11:54:19;;;;;;;0.80;0.80;;;;;;;20.28;44.70;66335.72;5011453;28;20201;-73
2022/08/07 11:57:10;;;;;;;0.90;0.90;;;;;;;20.45;44.84;66346.84;5011849;28;20208;-73
2022/08/07 11:59:54;;;;;;;1.10;1.10;;;;;;;20.71;45.01;66383.28;5094956;28;20655;-73
2022/08/07 12:03:09;;;;;;;1.00;1.00;;;;;;;20.85;43.76;66396.28;5113855;28;20181;-73
2022/08/07 12:06:31;;;;;;;0.90;0.90;;;;;;;20.80;45.00;66382.78;5114228;28;20564;-74
2022/08/07 12:09:34;;;;;;;0.73;0.73;;;;;;;;;;5100422;28;20205;-74
2022/08/07 12:12:06;;;;;;;0.70;0.70;;;;;;;;;;5092204;28;20209;-74
2022/08/07 12:14:42;;;;;;;0.90;0.90;;;;;;;;;;5113635;28;20184;-72
2022/08/07 12:17:10;;;;;;;0.93;0.80;;;;;;;;;;5113985;28;20219;-73
2022/08/07 12:20:08;;;;;;;0.80;0.80;;;;;;;;;;5114040;28;20179;-73
2022/08/07 12:23:08;;;;;;;0.90;0.90;;;;;;;;;;5113414;28;20188;-73
2022/08/07 12:25:56;;;;;;;0.70;0.70;;;;;;;20.23;43.30;66328.06;5113607;28;20237;-73
2022/08/07 12:29:14;;;;;;;1.03;1.03;;;;;;;20.33;45.95;66341.88;5114384;28;20197;-73
2022/08/07 12:31:57;;;;;;;1.10;1.10;;;;;;;20.44;43.66;66350.44;5113612;28;20585;-72
2022/08/07 12:34:39;;;;;;;1.40;1.40;;;;;;;20.39;46.11;66339.56;5113245;28;20181;-73
2022/08/07 12:37:10;;;;;;;1.23;1.23;;;;;;;20.26;43.17;66330.88;5115128;28;20205;-73
2022/08/07 12:39:49;;;;;;;1.00;1.00;;;;;;;;;;5117186;28;20255;-73
2022/08/07 12:42:23;;;;;;;1.00;1.00;;;;;;;20.36;45.61;66342.06;5117325;28;20177;-73
2022/08/07 12:44:56;;;;;;;1.10;1.10;;;;;;;20.44;44.77;66350.44;5117206;28;20213;-73
2022/08/07 12:47:41;;;;;;;1.00;1.00;;;;;;;;;;5117555;28;20217;-74
2022/08/07 12:50:30;;;;;;;1.13;1.13;;;;;;;20.69;44.60;66377.84;5117229;28;20215;-73
2022/08/07 12:53:17;;;;;;;0.90;0.90;;;;;;;20.57;42.91;66365.56;5117208;28;20180;-73
2022/08/07 12:55:53;;;;;;;1.10;1.10;;;;;;;20.91;41.86;66401.88;5116796;28;20223;-73
2022/08/07 12:58:36;;;;;;;0.80;0.80;;;;;;;20.61;45.06;66364.75;5117398;28;20536;-73
2022/08/07 13:01:05;;;;;;;2.27;1.20;;;;;;;20.54;44.97;66364.28;5117194;28;20201;-73
2022/08/07 13:04:15;;;;;;;1.00;1.00;;;;;;;20.55;44.64;66358.03;5116926;28;20204;-74
2022/08/07 13:07:16;;;;;;;0.90;0.90;;;;;;;;;;5117233;28;20161;-74
2022/08/07 13:10:31;;;;;;;0.90;0.90;;;;;;;20.52;44.58;66359.97;5116864;28;20616;-74
2022/08/07 13:13:09;;;;;;;0.80;0.80;;;;;;;;;;5116828;28;20223;-73
2022/08/07 13:15:45;;;;;;;0.93;0.93;;;;;;;;;;5116311;28;20301;-74
2022/08/07 13:18:19;;;;;;;0.90;0.90;;;;;;;;;;5116713;28;20199;-73
2022/08/07 13:21:01;;;;;;;0.80;0.80;;;;;;;20.43;44.30;66349.31;5116624;28;20534;-73
2022/08/07 13:23:50;;;;;;;1.00;1.00;;;;;;;20.51;45.94;66361.47;5116602;28;20208;-74